sensor_id;sensor_type;location;lat;lon;timestamp;P1;durP1;ratioP1;P2;durP2;ratioP2
51384;SDS011;37478;55.682;37.462;2022-09-09T00:06:28;5.63;;;2.83;;
51384;SDS011;37478;55.682;37.462;2022-09-09T00:11:29;4.07;;;2.92;;
51384;SDS011;37478;55.682;37.462;2022-09-09T00:13:57;3.80;;;2.40;;
51384;SDS011;37478;55.682;37.462;2022-09-09T00:16:25;3.72;;;2.20;;
51384;SDS011;37478;55.682;37.462;2022-09-09T00:21:26;3.47;;;2.33;;
51384;SDS011;37478;55.682;37.462;2022-09-09T00:23:57;4.55;;;2.28;;
51384;SDS011;37478;55.682;37.462;2022-09-09T00:28:57;5.43;;;3.05;;
51384;SDS011;37478;55.682;37.462;2022-09-09T00:31:26;4.88;;;2.58;;
51384;SDS011;37478;55.682;37.462;2022-09-09T00:33:53;3.13;;;2.13;;
51384;SDS011;37478;55.682;37.462;2022-09-09T00:36:20;5.63;;;2.30;;
51384;SDS011;37478;55.682;37.462;2022-09-09T00:38:57;5.38;;;3.33;;
51384;SDS011;37478;55.682;37.462;2022-09-09T00:46:38;6.65;;;2.80;;
51384;SDS011;37478;55.682;37.462;2022-09-09T00:49:46;4.60;;;2.47;;
51384;SDS011;37478;55.682;37.462;2022-09-09T00:59:48;7.72;;;2.83;;
51384;SDS011;37478;55.682;37.462;2022-09-09T01:02:16;3.80;;;2.57;;
51384;SDS011;37478;55.682;37.462;2022-09-09T01:04:43;3.88;;;2.80;;
51384;SDS011;37478;55.682;37.462;2022-09-09T01:07:18;4.70;;;3.00;;
51384;SDS011;37478;55.682;37.462;2022-09-09T01:12:16;4.75;;;2.92;;
51384;SDS011;37478;55.682;37.462;2022-09-09T01:15:07;6.15;;;3.30;;
51384;SDS011;37478;55.682;37.462;2022-09-09T01:17:31;5.05;;;2.97;;
51384;SDS011;37478;55.682;37.462;2022-09-09T01:22:37;5.35;;;2.65;;
51384;SDS011;37478;55.682;37.462;2022-09-09T01:27:30;4.72;;;3.20;;
51384;SDS011;37478;55.682;37.462;2022-09-09T01:29:56;4.88;;;3.17;;
51384;SDS011;37478;55.682;37.462;2022-09-09T01:32:38;5.18;;;2.78;;
51384;SDS011;37478;55.682;37.462;2022-09-09T01:35:04;5.70;;;3.33;;
51384;SDS011;37478;55.682;37.462;2022-09-09T01:37:30;9.25;;;3.53;;
51384;SDS011;37478;55.682;37.462;2022-09-09T01:39:56;5.55;;;3.40;;
51384;SDS011;37478;55.682;37.462;2022-09-09T01:42:21;5.45;;;2.95;;
51384;SDS011;37478;55.682;37.462;2022-09-09T01:44:46;6.32;;;3.25;;
51384;SDS011;37478;55.682;37.462;2022-09-09T01:47:12;4.03;;;3.55;;
51384;SDS011;37478;55.682;37.462;2022-09-09T01:49:37;7.07;;;3.42;;
51384;SDS011;37478;55.682;37.462;2022-09-09T01:52:02;6.15;;;3.05;;
51384;SDS011;37478;55.682;37.462;2022-09-09T01:54:29;6.03;;;3.15;;
51384;SDS011;37478;55.682;37.462;2022-09-09T02:00:07;6.32;;;3.22;;
51384;SDS011;37478;55.682;37.462;2022-09-09T02:02:52;6.80;;;3.58;;
51384;SDS011;37478;55.682;37.462;2022-09-09T02:05:39;4.43;;;3.47;;
51384;SDS011;37478;55.682;37.462;2022-09-09T02:08:20;4.32;;;2.85;;
51384;SDS011;37478;55.682;37.462;2022-09-09T02:10:50;5.80;;;3.10;;
51384;SDS011;37478;55.682;37.462;2022-09-09T02:13:18;6.25;;;3.25;;
51384;SDS011;37478;55.682;37.462;2022-09-09T02:16:00;4.60;;;3.13;;
51384;SDS011;37478;55.682;37.462;2022-09-09T02:18:30;4.32;;;2.85;;
51384;SDS011;37478;55.682;37.462;2022-09-09T02:20:56;4.38;;;3.00;;
51384;SDS011;37478;55.682;37.462;2022-09-09T02:23:22;5.00;;;3.38;;
51384;SDS011;37478;55.682;37.462;2022-09-09T02:25:48;7.03;;;3.75;;
51384;SDS011;37478;55.682;37.462;2022-09-09T02:28:17;4.82;;;3.47;;
51384;SDS011;37478;55.682;37.462;2022-09-09T02:30:43;4.70;;;2.95;;
51384;SDS011;37478;55.682;37.462;2022-09-09T02:33:09;5.30;;;3.38;;
51384;SDS011;37478;55.682;37.462;2022-09-09T02:35:37;4.95;;;3.47;;
51384;SDS011;37478;55.682;37.462;2022-09-09T02:38:04;4.90;;;3.08;;
51384;SDS011;37478;55.682;37.462;2022-09-09T02:40:30;5.63;;;3.30;;
51384;SDS011;37478;55.682;37.462;2022-09-09T02:42:55;6.15;;;2.97;;
51384;SDS011;37478;55.682;37.462;2022-09-09T02:45:23;4.82;;;3.08;;
51384;SDS011;37478;55.682;37.462;2022-09-09T02:50:32;4.35;;;3.15;;
51384;SDS011;37478;55.682;37.462;2022-09-09T02:53:16;5.10;;;3.13;;
51384;SDS011;37478;55.682;37.462;2022-09-09T02:55:45;7.80;;;3.05;;
51384;SDS011;37478;55.682;37.462;2022-09-09T02:58:12;4.93;;;3.00;;
51384;SDS011;37478;55.682;37.462;2022-09-09T03:00:39;6.25;;;3.55;;
51384;SDS011;37478;55.682;37.462;2022-09-09T03:03:05;5.05;;;3.38;;
51384;SDS011;37478;55.682;37.462;2022-09-09T03:05:30;6.40;;;3.22;;
51384;SDS011;37478;55.682;37.462;2022-09-09T03:07:56;5.57;;;3.97;;
51384;SDS011;37478;55.682;37.462;2022-09-09T03:10:22;5.95;;;3.00;;
51384;SDS011;37478;55.682;37.462;2022-09-09T03:12:47;3.97;;;2.97;;
51384;SDS011;37478;55.682;37.462;2022-09-09T03:15:12;8.45;;;2.80;;
51384;SDS011;37478;55.682;37.462;2022-09-09T03:17:38;3.88;;;2.72;;
51384;SDS011;37478;55.682;37.462;2022-09-09T03:20:04;5.82;;;3.13;;
51384;SDS011;37478;55.682;37.462;2022-09-09T03:22:29;5.32;;;2.83;;
51384;SDS011;37478;55.682;37.462;2022-09-09T03:24:55;5.10;;;3.33;;
51384;SDS011;37478;55.682;37.462;2022-09-09T03:27:20;3.72;;;3.05;;
51384;SDS011;37478;55.682;37.462;2022-09-09T03:29:46;5.30;;;3.38;;
51384;SDS011;37478;55.682;37.462;2022-09-09T03:32:11;6.70;;;3.10;;
51384;SDS011;37478;55.682;37.462;2022-09-09T03:34:37;5.10;;;3.30;;
51384;SDS011;37478;55.682;37.462;2022-09-09T03:37:05;6.85;;;3.42;;
51384;SDS011;37478;55.682;37.462;2022-09-09T03:39:30;6.10;;;3.35;;
51384;SDS011;37478;55.682;37.462;2022-09-09T03:41:56;6.18;;;3.75;;
51384;SDS011;37478;55.682;37.462;2022-09-09T03:44:21;4.63;;;2.67;;
51384;SDS011;37478;55.682;37.462;2022-09-09T03:46:46;8.50;;;3.28;;
51384;SDS011;37478;55.682;37.462;2022-09-09T03:49:11;8.50;;;3.10;;
51384;SDS011;37478;55.682;37.462;2022-09-09T03:51:37;6.93;;;3.22;;
51384;SDS011;37478;55.682;37.462;2022-09-09T03:54:03;5.53;;;3.58;;
51384;SDS011;37478;55.682;37.462;2022-09-09T03:56:30;4.90;;;3.40;;
51384;SDS011;37478;55.682;37.462;2022-09-09T03:58:55;7.72;;;2.90;;
51384;SDS011;37478;55.682;37.462;2022-09-09T04:01:20;8.85;;;3.88;;
51384;SDS011;37478;55.682;37.462;2022-09-09T04:03:46;7.32;;;3.63;;
51384;SDS011;37478;55.682;37.462;2022-09-09T04:06:11;5.85;;;3.25;;
51384;SDS011;37478;55.682;37.462;2022-09-09T04:08:38;10.10;;;3.58;;
51384;SDS011;37478;55.682;37.462;2022-09-09T04:11:04;7.72;;;3.40;;
51384;SDS011;37478;55.682;37.462;2022-09-09T04:13:31;8.23;;;3.10;;
51384;SDS011;37478;55.682;37.462;2022-09-09T04:15:58;8.10;;;3.75;;
51384;SDS011;37478;55.682;37.462;2022-09-09T04:18:23;6.93;;;3.97;;
51384;SDS011;37478;55.682;37.462;2022-09-09T04:20:49;5.00;;;3.33;;
51384;SDS011;37478;55.682;37.462;2022-09-09T04:23:15;6.53;;;3.30;;
51384;SDS011;37478;55.682;37.462;2022-09-09T04:25:47;8.70;;;3.88;;
51384;SDS011;37478;55.682;37.462;2022-09-09T04:28:13;5.03;;;3.50;;
51384;SDS011;37478;55.682;37.462;2022-09-09T04:30:39;3.80;;;2.78;;
51384;SDS011;37478;55.682;37.462;2022-09-09T04:33:05;5.18;;;3.63;;
51384;SDS011;37478;55.682;37.462;2022-09-09T04:35:31;8.73;;;3.38;;
51384;SDS011;37478;55.682;37.462;2022-09-09T04:37:56;5.40;;;3.40;;
51384;SDS011;37478;55.682;37.462;2022-09-09T04:40:21;4.20;;;2.95;;
51384;SDS011;37478;55.682;37.462;2022-09-09T04:42:47;5.15;;;3.47;;
51384;SDS011;37478;55.682;37.462;2022-09-09T04:45:13;4.22;;;3.03;;
51384;SDS011;37478;55.682;37.462;2022-09-09T04:47:38;6.82;;;3.13;;
51384;SDS011;37478;55.682;37.462;2022-09-09T04:50:04;7.00;;;3.50;;
51384;SDS011;37478;55.682;37.462;2022-09-09T04:52:30;4.50;;;2.75;;
51384;SDS011;37478;55.682;37.462;2022-09-09T04:54:55;4.90;;;2.78;;
51384;SDS011;37478;55.682;37.462;2022-09-09T04:57:20;4.70;;;2.40;;
51384;SDS011;37478;55.682;37.462;2022-09-09T04:59:46;6.68;;;3.38;;
51384;SDS011;37478;55.682;37.462;2022-09-09T05:02:11;3.90;;;3.13;;
51384;SDS011;37478;55.682;37.462;2022-09-09T05:04:36;7.35;;;3.10;;
51384;SDS011;37478;55.682;37.462;2022-09-09T05:07:02;4.72;;;3.05;;
51384;SDS011;37478;55.682;37.462;2022-09-09T05:09:27;8.77;;;4.03;;
51384;SDS011;37478;55.682;37.462;2022-09-09T05:11:52;6.97;;;3.72;;
51384;SDS011;37478;55.682;37.462;2022-09-09T05:14:18;6.50;;;2.83;;
51384;SDS011;37478;55.682;37.462;2022-09-09T05:16:46;5.60;;;2.83;;
51384;SDS011;37478;55.682;37.462;2022-09-09T05:19:12;5.88;;;3.40;;
51384;SDS011;37478;55.682;37.462;2022-09-09T05:21:37;8.02;;;3.28;;
51384;SDS011;37478;55.682;37.462;2022-09-09T05:24:03;11.55;;;4.13;;
51384;SDS011;37478;55.682;37.462;2022-09-09T05:26:28;4.47;;;2.30;;
51384;SDS011;37478;55.682;37.462;2022-09-09T05:28:57;4.40;;;2.85;;
51384;SDS011;37478;55.682;37.462;2022-09-09T05:31:24;5.78;;;2.92;;
51384;SDS011;37478;55.682;37.462;2022-09-09T05:33:53;6.82;;;3.47;;
51384;SDS011;37478;55.682;37.462;2022-09-09T05:36:19;8.38;;;3.38;;
51384;SDS011;37478;55.682;37.462;2022-09-09T05:38:45;3.88;;;3.13;;
51384;SDS011;37478;55.682;37.462;2022-09-09T05:41:11;7.68;;;3.70;;
51384;SDS011;37478;55.682;37.462;2022-09-09T05:43:37;7.18;;;2.80;;
51384;SDS011;37478;55.682;37.462;2022-09-09T05:46:04;5.07;;;3.40;;
51384;SDS011;37478;55.682;37.462;2022-09-09T05:48:30;5.65;;;3.20;;
51384;SDS011;37478;55.682;37.462;2022-09-09T05:50:55;5.22;;;3.40;;
51384;SDS011;37478;55.682;37.462;2022-09-09T05:53:21;4.43;;;2.50;;
51384;SDS011;37478;55.682;37.462;2022-09-09T05:55:46;6.28;;;2.45;;
51384;SDS011;37478;55.682;37.462;2022-09-09T05:58:12;6.00;;;3.85;;
51384;SDS011;37478;55.682;37.462;2022-09-09T06:00:39;10.63;;;3.00;;
51384;SDS011;37478;55.682;37.462;2022-09-09T06:03:04;7.38;;;3.67;;
51384;SDS011;37478;55.682;37.462;2022-09-09T06:05:29;10.43;;;3.83;;
51384;SDS011;37478;55.682;37.462;2022-09-09T06:07:55;11.95;;;3.60;;
51384;SDS011;37478;55.682;37.462;2022-09-09T06:10:20;4.60;;;2.95;;
51384;SDS011;37478;55.682;37.462;2022-09-09T06:12:46;9.57;;;3.85;;
51384;SDS011;37478;55.682;37.462;2022-09-09T06:15:11;6.97;;;4.03;;
51384;SDS011;37478;55.682;37.462;2022-09-09T06:17:36;5.03;;;2.80;;
51384;SDS011;37478;55.682;37.462;2022-09-09T06:20:04;4.93;;;3.17;;
51384;SDS011;37478;55.682;37.462;2022-09-09T06:22:29;5.65;;;2.75;;
51384;SDS011;37478;55.682;37.462;2022-09-09T06:24:55;5.88;;;2.70;;
51384;SDS011;37478;55.682;37.462;2022-09-09T06:27:20;3.67;;;2.55;;
51384;SDS011;37478;55.682;37.462;2022-09-09T06:29:46;4.75;;;2.70;;
51384;SDS011;37478;55.682;37.462;2022-09-09T06:32:11;5.40;;;3.08;;
51384;SDS011;37478;55.682;37.462;2022-09-09T06:34:36;6.40;;;3.00;;
51384;SDS011;37478;55.682;37.462;2022-09-09T06:37:02;4.05;;;2.35;;
51384;SDS011;37478;55.682;37.462;2022-09-09T06:39:27;5.82;;;2.80;;
51384;SDS011;37478;55.682;37.462;2022-09-09T06:41:52;4.72;;;2.40;;
51384;SDS011;37478;55.682;37.462;2022-09-09T06:44:18;6.30;;;2.55;;
51384;SDS011;37478;55.682;37.462;2022-09-09T06:46:44;4.35;;;2.55;;
51384;SDS011;37478;55.682;37.462;2022-09-09T06:49:12;6.35;;;2.67;;
51384;SDS011;37478;55.682;37.462;2022-09-09T06:51:38;7.60;;;2.60;;
51384;SDS011;37478;55.682;37.462;2022-09-09T06:54:08;5.50;;;3.22;;
51384;SDS011;37478;55.682;37.462;2022-09-09T06:56:35;4.75;;;2.65;;
51384;SDS011;37478;55.682;37.462;2022-09-09T06:59:01;3.30;;;2.60;;
51384;SDS011;37478;55.682;37.462;2022-09-09T07:01:29;6.75;;;2.60;;
51384;SDS011;37478;55.682;37.462;2022-09-09T07:03:55;2.13;;;1.73;;
51384;SDS011;37478;55.682;37.462;2022-09-09T07:06:23;11.05;;;1.98;;
51384;SDS011;37478;55.682;37.462;2022-09-09T07:08:53;2.25;;;2.05;;
51384;SDS011;37478;55.682;37.462;2022-09-09T07:11:20;2.88;;;1.55;;
51384;SDS011;37478;55.682;37.462;2022-09-09T07:13:46;4.05;;;1.58;;
51384;SDS011;37478;55.682;37.462;2022-09-09T07:16:12;5.18;;;1.98;;
51384;SDS011;37478;55.682;37.462;2022-09-09T07:18:38;4.65;;;1.63;;
51384;SDS011;37478;55.682;37.462;2022-09-09T07:21:03;2.25;;;1.42;;
51384;SDS011;37478;55.682;37.462;2022-09-09T07:23:29;5.53;;;1.60;;
51384;SDS011;37478;55.682;37.462;2022-09-09T07:25:55;5.70;;;2.88;;
51384;SDS011;37478;55.682;37.462;2022-09-09T07:28:20;2.50;;;1.98;;
51384;SDS011;37478;55.682;37.462;2022-09-09T07:33:20;4.05;;;1.83;;
51384;SDS011;37478;55.682;37.462;2022-09-09T07:35:45;3.92;;;1.38;;
51384;SDS011;37478;55.682;37.462;2022-09-09T07:38:11;3.13;;;1.52;;
51384;SDS011;37478;55.682;37.462;2022-09-09T07:40:36;11.60;;;2.03;;
51384;SDS011;37478;55.682;37.462;2022-09-09T07:43:01;1.55;;;1.20;;
51384;SDS011;37478;55.682;37.462;2022-09-09T07:45:27;2.78;;;1.10;;
51384;SDS011;37478;55.682;37.462;2022-09-09T07:47:57;3.63;;;1.45;;
51384;SDS011;37478;55.682;37.462;2022-09-09T07:50:23;4.05;;;1.60;;
51384;SDS011;37478;55.682;37.462;2022-09-09T07:52:49;6.03;;;1.63;;
51384;SDS011;37478;55.682;37.462;2022-09-09T07:55:14;2.35;;;1.65;;
51384;SDS011;37478;55.682;37.462;2022-09-09T07:57:40;10.15;;;2.30;;
51384;SDS011;37478;55.682;37.462;2022-09-09T08:00:05;5.05;;;1.63;;
51384;SDS011;37478;55.682;37.462;2022-09-09T08:02:31;3.80;;;2.08;;
51384;SDS011;37478;55.682;37.462;2022-09-09T08:04:56;6.53;;;1.38;;
51384;SDS011;37478;55.682;37.462;2022-09-09T08:07:22;2.30;;;1.10;;
51384;SDS011;37478;55.682;37.462;2022-09-09T08:09:48;1.25;;;1.15;;
51384;SDS011;37478;55.682;37.462;2022-09-09T08:12:14;2.65;;;1.15;;
51384;SDS011;37478;55.682;37.462;2022-09-09T08:14:39;4.03;;;1.40;;
51384;SDS011;37478;55.682;37.462;2022-09-09T08:17:05;1.17;;;1.00;;
51384;SDS011;37478;55.682;37.462;2022-09-09T08:19:30;3.80;;;1.30;;
51384;SDS011;37478;55.682;37.462;2022-09-09T08:21:59;2.95;;;1.48;;
51384;SDS011;37478;55.682;37.462;2022-09-09T08:24:24;6.32;;;1.42;;
51384;SDS011;37478;55.682;37.462;2022-09-09T08:26:50;4.15;;;1.10;;
51384;SDS011;37478;55.682;37.462;2022-09-09T08:29:15;1.98;;;1.00;;
51384;SDS011;37478;55.682;37.462;2022-09-09T08:31:54;2.53;;;1.73;;
51384;SDS011;37478;55.682;37.462;2022-09-09T08:34:21;7.95;;;1.20;;
51384;SDS011;37478;55.682;37.462;2022-09-09T08:36:47;1.95;;;1.30;;
51384;SDS011;37478;55.682;37.462;2022-09-09T08:39:13;2.03;;;1.05;;
51384;SDS011;37478;55.682;37.462;2022-09-09T08:52:22;1.80;;;1.25;;
51384;SDS011;37478;55.682;37.462;2022-09-09T08:54:48;3.47;;;1.60;;
51384;SDS011;37478;55.682;37.462;2022-09-09T08:57:16;4.88;;;1.40;;
51384;SDS011;37478;55.682;37.462;2022-09-09T08:59:43;3.08;;;1.70;;
51384;SDS011;37478;55.682;37.462;2022-09-09T09:02:16;3.45;;;1.58;;
51384;SDS011;37478;55.682;37.462;2022-09-09T09:04:49;3.70;;;2.13;;
51384;SDS011;37478;55.682;37.462;2022-09-09T09:07:19;3.80;;;1.77;;
51384;SDS011;37478;55.682;37.462;2022-09-09T09:12:25;2.45;;;1.15;;
51384;SDS011;37478;55.682;37.462;2022-09-09T09:14:51;2.97;;;1.33;;
51384;SDS011;37478;55.682;37.462;2022-09-09T09:17:19;2.92;;;1.27;;
51384;SDS011;37478;55.682;37.462;2022-09-09T09:19:46;3.80;;;1.33;;
51384;SDS011;37478;55.682;37.462;2022-09-09T09:22:21;5.15;;;1.60;;
51384;SDS011;37478;55.682;37.462;2022-09-09T09:27:21;1.10;;;1.00;;
51384;SDS011;37478;55.682;37.462;2022-09-09T09:29:50;3.72;;;1.63;;
51384;SDS011;37478;55.682;37.462;2022-09-09T09:32:18;2.90;;;1.50;;
51384;SDS011;37478;55.682;37.462;2022-09-09T09:34:48;3.35;;;1.95;;
51384;SDS011;37478;55.682;37.462;2022-09-09T09:37:47;2.15;;;1.45;;
51384;SDS011;37478;55.682;37.462;2022-09-09T09:40:10;1.90;;;1.63;;
51384;SDS011;37478;55.682;37.462;2022-09-09T09:42:35;5.13;;;1.17;;
51384;SDS011;37478;55.682;37.462;2022-09-09T09:45:07;3.45;;;1.48;;
51384;SDS011;37478;55.682;37.462;2022-09-09T09:47:33;4.40;;;1.33;;
51384;SDS011;37478;55.682;37.462;2022-09-09T09:49:59;7.50;;;1.83;;
51384;SDS011;37478;55.682;37.462;2022-09-09T09:52:25;3.67;;;1.33;;
51384;SDS011;37478;55.682;37.462;2022-09-09T09:54:51;1.25;;;1.05;;
51384;SDS011;37478;55.682;37.462;2022-09-09T09:57:17;3.33;;;1.30;;
51384;SDS011;37478;55.682;37.462;2022-09-09T09:59:43;3.85;;;1.50;;
51384;SDS011;37478;55.682;37.462;2022-09-09T10:02:19;3.05;;;1.30;;
51384;SDS011;37478;55.682;37.462;2022-09-09T10:04:45;3.00;;;1.25;;
51384;SDS011;37478;55.682;37.462;2022-09-09T10:07:21;1.58;;;1.38;;
51384;SDS011;37478;55.682;37.462;2022-09-09T10:09:53;1.73;;;1.55;;
51384;SDS011;37478;55.682;37.462;2022-09-09T10:19:43;2.58;;;1.35;;
51384;SDS011;37478;55.682;37.462;2022-09-09T10:22:23;2.20;;;1.27;;
51384;SDS011;37478;55.682;37.462;2022-09-09T10:29:51;1.65;;;1.00;;
51384;SDS011;37478;55.682;37.462;2022-09-09T10:37:48;2.60;;;1.25;;
51384;SDS011;37478;55.682;37.462;2022-09-09T10:41:01;1.10;;;1.10;;
51384;SDS011;37478;55.682;37.462;2022-09-09T10:45:45;2.72;;;1.35;;
51384;SDS011;37478;55.682;37.462;2022-09-09T10:55:59;1.67;;;1.20;;
51384;SDS011;37478;55.682;37.462;2022-09-09T10:58:30;3.78;;;1.70;;
51384;SDS011;37478;55.682;37.462;2022-09-09T11:01:00;1.95;;;1.40;;
51384;SDS011;37478;55.682;37.462;2022-09-09T11:03:28;3.35;;;1.25;;
51384;SDS011;37478;55.682;37.462;2022-09-09T11:06:04;1.35;;;1.25;;
51384;SDS011;37478;55.682;37.462;2022-09-09T11:08:31;2.20;;;1.15;;
51384;SDS011;37478;55.682;37.462;2022-09-09T11:11:14;7.50;;;1.48;;
51384;SDS011;37478;55.682;37.462;2022-09-09T11:18:37;2.67;;;1.23;;
51384;SDS011;37478;55.682;37.462;2022-09-09T11:21:12;1.08;;;0.95;;
51384;SDS011;37478;55.682;37.462;2022-09-09T11:23:43;5.13;;;2.30;;
51384;SDS011;37478;55.682;37.462;2022-09-09T11:26:11;2.80;;;1.98;;
51384;SDS011;37478;55.682;37.462;2022-09-09T11:28:49;1.02;;;0.98;;
51384;SDS011;37478;55.682;37.462;2022-09-09T11:42:15;4.43;;;1.48;;
51384;SDS011;37478;55.682;37.462;2022-09-09T11:44:41;1.33;;;1.17;;
51384;SDS011;37478;55.682;37.462;2022-09-09T11:47:20;3.08;;;1.35;;
51384;SDS011;37478;55.682;37.462;2022-09-09T11:49:49;3.38;;;1.60;;
51384;SDS011;37478;55.682;37.462;2022-09-09T11:54:46;1.73;;;1.15;;
51384;SDS011;37478;55.682;37.462;2022-09-09T11:57:23;5.28;;;1.80;;
51384;SDS011;37478;55.682;37.462;2022-09-09T11:59:52;7.10;;;1.27;;
51384;SDS011;37478;55.682;37.462;2022-09-09T12:02:24;2.50;;;1.52;;
51384;SDS011;37478;55.682;37.462;2022-09-09T12:04:55;1.17;;;0.90;;
51384;SDS011;37478;55.682;37.462;2022-09-09T12:07:28;2.22;;;1.50;;
51384;SDS011;37478;55.682;37.462;2022-09-09T12:12:22;3.72;;;1.52;;
51384;SDS011;37478;55.682;37.462;2022-09-09T12:15:02;2.05;;;0.98;;
51384;SDS011;37478;55.682;37.462;2022-09-09T12:17:29;1.98;;;1.45;;
51384;SDS011;37478;55.682;37.462;2022-09-09T12:30:41;2.60;;;1.35;;
51384;SDS011;37478;55.682;37.462;2022-09-09T12:33:10;3.03;;;1.27;;
51384;SDS011;37478;55.682;37.462;2022-09-09T12:35:35;3.55;;;1.30;;
51384;SDS011;37478;55.682;37.462;2022-09-09T12:38:03;2.88;;;1.20;;
51384;SDS011;37478;55.682;37.462;2022-09-09T12:40:32;2.55;;;1.33;;
51384;SDS011;37478;55.682;37.462;2022-09-09T12:43:00;2.75;;;1.40;;
51384;SDS011;37478;55.682;37.462;2022-09-09T12:45:27;1.25;;;1.10;;
51384;SDS011;37478;55.682;37.462;2022-09-09T12:50:25;4.25;;;1.52;;
51384;SDS011;37478;55.682;37.462;2022-09-09T12:52:52;1.73;;;0.82;;
51384;SDS011;37478;55.682;37.462;2022-09-09T12:55:23;1.65;;;1.40;;
51384;SDS011;37478;55.682;37.462;2022-09-09T12:57:50;3.00;;;1.50;;
51384;SDS011;37478;55.682;37.462;2022-09-09T13:00:17;4.88;;;1.75;;
51384;SDS011;37478;55.682;37.462;2022-09-09T13:03:01;1.65;;;1.30;;
51384;SDS011;37478;55.682;37.462;2022-09-09T13:05:34;4.15;;;1.15;;
51384;SDS011;37478;55.682;37.462;2022-09-09T13:08:03;4.93;;;1.60;;
51384;SDS011;37478;55.682;37.462;2022-09-09T13:10:29;2.25;;;1.35;;
51384;SDS011;37478;55.682;37.462;2022-09-09T13:12:57;2.65;;;1.55;;
51384;SDS011;37478;55.682;37.462;2022-09-09T13:15:24;5.05;;;1.55;;
51384;SDS011;37478;55.682;37.462;2022-09-09T13:17:53;4.65;;;1.63;;
51384;SDS011;37478;55.682;37.462;2022-09-09T13:20:20;2.75;;;1.45;;
51384;SDS011;37478;55.682;37.462;2022-09-09T13:22:46;4.00;;;1.80;;
51384;SDS011;37478;55.682;37.462;2022-09-09T13:27:39;5.88;;;1.58;;
51384;SDS011;37478;55.682;37.462;2022-09-09T13:33:01;3.08;;;1.45;;
51384;SDS011;37478;55.682;37.462;2022-09-09T13:35:27;6.15;;;1.38;;
51384;SDS011;37478;55.682;37.462;2022-09-09T13:37:52;6.20;;;2.03;;
51384;SDS011;37478;55.682;37.462;2022-09-09T13:40:19;5.43;;;1.85;;
51384;SDS011;37478;55.682;37.462;2022-09-09T13:42:44;7.38;;;1.33;;
51384;SDS011;37478;55.682;37.462;2022-09-09T13:45:19;5.85;;;1.50;;
51384;SDS011;37478;55.682;37.462;2022-09-09T13:47:45;4.63;;;1.73;;
51384;SDS011;37478;55.682;37.462;2022-09-09T13:52:46;3.42;;;1.50;;
51384;SDS011;37478;55.682;37.462;2022-09-09T13:55:12;4.25;;;1.45;;
51384;SDS011;37478;55.682;37.462;2022-09-09T13:57:37;3.38;;;1.58;;
51384;SDS011;37478;55.682;37.462;2022-09-09T14:00:03;5.20;;;1.60;;
51384;SDS011;37478;55.682;37.462;2022-09-09T14:02:28;6.65;;;1.40;;
51384;SDS011;37478;55.682;37.462;2022-09-09T14:04:56;3.40;;;1.33;;
51384;SDS011;37478;55.682;37.462;2022-09-09T14:07:21;3.42;;;1.40;;
51384;SDS011;37478;55.682;37.462;2022-09-09T14:09:50;4.53;;;1.48;;
51384;SDS011;37478;55.682;37.462;2022-09-09T14:12:16;3.83;;;1.70;;
51384;SDS011;37478;55.682;37.462;2022-09-09T14:14:42;2.13;;;1.27;;
51384;SDS011;37478;55.682;37.462;2022-09-09T14:17:08;6.65;;;2.10;;
51384;SDS011;37478;55.682;37.462;2022-09-09T14:19:34;5.38;;;2.65;;
51384;SDS011;37478;55.682;37.462;2022-09-09T14:21:59;6.35;;;2.60;;
51384;SDS011;37478;55.682;37.462;2022-09-09T14:24:25;13.18;;;2.25;;
51384;SDS011;37478;55.682;37.462;2022-09-09T14:26:50;5.93;;;2.28;;
51384;SDS011;37478;55.682;37.462;2022-09-09T14:29:16;4.88;;;2.22;;
51384;SDS011;37478;55.682;37.462;2022-09-09T14:31:41;1.70;;;1.45;;
51384;SDS011;37478;55.682;37.462;2022-09-09T14:34:06;2.78;;;1.58;;
51384;SDS011;37478;55.682;37.462;2022-09-09T14:36:32;2.30;;;1.80;;
51384;SDS011;37478;55.682;37.462;2022-09-09T14:38:57;10.90;;;2.00;;
51384;SDS011;37478;55.682;37.462;2022-09-09T14:41:23;4.63;;;1.70;;
51384;SDS011;37478;55.682;37.462;2022-09-09T14:43:50;10.10;;;2.17;;
51384;SDS011;37478;55.682;37.462;2022-09-09T14:46:17;4.85;;;2.42;;
51384;SDS011;37478;55.682;37.462;2022-09-09T14:48:42;4.80;;;2.67;;
51384;SDS011;37478;55.682;37.462;2022-09-09T14:51:09;7.10;;;3.10;;
51384;SDS011;37478;55.682;37.462;2022-09-09T14:53:36;9.00;;;4.07;;
51384;SDS011;37478;55.682;37.462;2022-09-09T14:56:08;9.63;;;3.50;;
51384;SDS011;37478;55.682;37.462;2022-09-09T14:58:34;9.35;;;3.40;;
51384;SDS011;37478;55.682;37.462;2022-09-09T15:01:06;4.75;;;3.08;;
51384;SDS011;37478;55.682;37.462;2022-09-09T15:03:32;7.72;;;3.30;;
51384;SDS011;37478;55.682;37.462;2022-09-09T15:05:58;5.35;;;2.67;;
51384;SDS011;37478;55.682;37.462;2022-09-09T15:08:24;5.10;;;2.40;;
51384;SDS011;37478;55.682;37.462;2022-09-09T15:10:49;7.50;;;3.15;;
51384;SDS011;37478;55.682;37.462;2022-09-09T15:13:15;4.82;;;2.72;;
51384;SDS011;37478;55.682;37.462;2022-09-09T15:15:42;4.57;;;2.38;;
51384;SDS011;37478;55.682;37.462;2022-09-09T15:18:08;4.28;;;3.10;;
51384;SDS011;37478;55.682;37.462;2022-09-09T15:20:33;6.82;;;2.80;;
51384;SDS011;37478;55.682;37.462;2022-09-09T15:23:00;6.10;;;2.88;;
51384;SDS011;37478;55.682;37.462;2022-09-09T15:25:25;6.07;;;2.40;;
51384;SDS011;37478;55.682;37.462;2022-09-09T15:27:51;5.03;;;1.77;;
51384;SDS011;37478;55.682;37.462;2022-09-09T15:30:17;7.20;;;2.65;;
51384;SDS011;37478;55.682;37.462;2022-09-09T15:32:42;5.80;;;2.20;;
51384;SDS011;37478;55.682;37.462;2022-09-09T15:35:07;5.65;;;2.08;;
51384;SDS011;37478;55.682;37.462;2022-09-09T15:37:33;4.30;;;2.13;;
51384;SDS011;37478;55.682;37.462;2022-09-09T15:39:58;3.17;;;2.05;;
51384;SDS011;37478;55.682;37.462;2022-09-09T15:42:24;3.95;;;2.00;;
51384;SDS011;37478;55.682;37.462;2022-09-09T15:44:50;6.18;;;2.28;;
51384;SDS011;37478;55.682;37.462;2022-09-09T15:47:15;4.45;;;1.90;;
51384;SDS011;37478;55.682;37.462;2022-09-09T15:49:41;3.78;;;2.15;;
51384;SDS011;37478;55.682;37.462;2022-09-09T15:52:08;5.45;;;2.30;;
51384;SDS011;37478;55.682;37.462;2022-09-09T15:54:35;5.53;;;2.40;;
51384;SDS011;37478;55.682;37.462;2022-09-09T15:57:01;5.40;;;2.05;;
51384;SDS011;37478;55.682;37.462;2022-09-09T15:59:28;4.45;;;2.40;;
51384;SDS011;37478;55.682;37.462;2022-09-09T16:01:54;13.07;;;3.00;;
51384;SDS011;37478;55.682;37.462;2022-09-09T16:04:20;8.57;;;2.70;;
51384;SDS011;37478;55.682;37.462;2022-09-09T16:06:48;3.40;;;1.75;;
51384;SDS011;37478;55.682;37.462;2022-09-09T16:09:14;4.63;;;2.30;;
51384;SDS011;37478;55.682;37.462;2022-09-09T16:11:39;3.75;;;1.83;;
51384;SDS011;37478;55.682;37.462;2022-09-09T16:14:05;9.68;;;3.03;;
51384;SDS011;37478;55.682;37.462;2022-09-09T16:16:31;4.80;;;1.83;;
51384;SDS011;37478;55.682;37.462;2022-09-09T16:19:02;5.38;;;2.50;;
51384;SDS011;37478;55.682;37.462;2022-09-09T16:21:28;2.40;;;1.48;;
51384;SDS011;37478;55.682;37.462;2022-09-09T16:23:54;7.18;;;1.80;;
51384;SDS011;37478;55.682;37.462;2022-09-09T16:26:20;6.43;;;2.72;;
51384;SDS011;37478;55.682;37.462;2022-09-09T16:28:45;5.63;;;1.95;;
51384;SDS011;37478;55.682;37.462;2022-09-09T16:31:16;4.03;;;1.85;;
51384;SDS011;37478;55.682;37.462;2022-09-09T16:33:42;8.25;;;3.42;;
51384;SDS011;37478;55.682;37.462;2022-09-09T16:36:15;16.95;;;3.22;;
51384;SDS011;37478;55.682;37.462;2022-09-09T16:38:40;3.22;;;1.90;;
51384;SDS011;37478;55.682;37.462;2022-09-09T16:41:06;9.35;;;2.58;;
51384;SDS011;37478;55.682;37.462;2022-09-09T16:43:32;11.15;;;3.17;;